Waterford, Connecticut
Current Conditions -  °F | °C
As of 3:56 PM on Friday 19 Dec 2014 (Local Time) from KGON Reporting Station
Overcast Overcast  
Wind Chill: 26°   Ceiling: 3600
Heat Index: 35°   Visibility: 7mi
Dew Point: 22°   Wind: 13mph
Humidity: 59%   Direction: 340°NNW
Pressure: 30.02"   Gusts: NA
Location:  41.33°N, 72.12°W
Report Text: KGON 192056Z 34011KT 7SM OVC036 02/M06 A3002 RMK AO2 SLP165 T00171056 53019
Loading
Personal Weather Stations






























Interactive Weather Map New forecast layout! Learn more

10-Day Weather Forecast

Advertisements
Track Severe Weather on mobile